sensor_id;sensor_type;location;lat;lon;timestamp;P1;durP1;ratioP1;P2;durP2;ratioP2
15425;SDS011;7812;50.072;7.036;2023-08-07T00:02:05;6.07;;;2.50;;
15425;SDS011;7812;50.072;7.036;2023-08-07T00:04:32;4.37;;;1.97;;
15425;SDS011;7812;50.072;7.036;2023-08-07T00:06:57;5.87;;;2.20;;
15425;SDS011;7812;50.072;7.036;2023-08-07T00:09:23;5.17;;;2.23;;
15425;SDS011;7812;50.072;7.036;2023-08-07T00:11:49;9.23;;;2.30;;
15425;SDS011;7812;50.072;7.036;2023-08-07T00:14:14;5.80;;;2.10;;
15425;SDS011;7812;50.072;7.036;2023-08-07T00:16:40;6.77;;;2.20;;
15425;SDS011;7812;50.072;7.036;2023-08-07T00:19:06;4.27;;;2.60;;
15425;SDS011;7812;50.072;7.036;2023-08-07T00:21:32;5.47;;;2.40;;
15425;SDS011;7812;50.072;7.036;2023-08-07T00:24:00;3.83;;;2.43;;
15425;SDS011;7812;50.072;7.036;2023-08-07T00:26:26;5.97;;;2.10;;
15425;SDS011;7812;50.072;7.036;2023-08-07T00:28:52;4.90;;;2.30;;
15425;SDS011;7812;50.072;7.036;2023-08-07T00:31:17;3.63;;;2.00;;
15425;SDS011;7812;50.072;7.036;2023-08-07T00:33:43;9.50;;;2.93;;
15425;SDS011;7812;50.072;7.036;2023-08-07T00:36:08;4.93;;;2.23;;
15425;SDS011;7812;50.072;7.036;2023-08-07T00:38:34;6.13;;;2.20;;
15425;SDS011;7812;50.072;7.036;2023-08-07T00:41:00;5.70;;;2.57;;
15425;SDS011;7812;50.072;7.036;2023-08-07T00:43:25;4.47;;;2.63;;
15425;SDS011;7812;50.072;7.036;2023-08-07T00:49:00;7.37;;;2.70;;
15425;SDS011;7812;50.072;7.036;2023-08-07T00:51:26;4.47;;;2.20;;
15425;SDS011;7812;50.072;7.036;2023-08-07T00:53:51;3.33;;;2.00;;
15425;SDS011;7812;50.072;7.036;2023-08-07T00:56:17;5.67;;;2.27;;
15425;SDS011;7812;50.072;7.036;2023-08-07T00:58:43;5.57;;;2.57;;
15425;SDS011;7812;50.072;7.036;2023-08-07T01:01:09;6.67;;;2.13;;
15425;SDS011;7812;50.072;7.036;2023-08-07T01:03:35;3.63;;;2.47;;
15425;SDS011;7812;50.072;7.036;2023-08-07T01:06:01;6.80;;;2.57;;
15425;SDS011;7812;50.072;7.036;2023-08-07T01:08:27;7.33;;;2.77;;
15425;SDS011;7812;50.072;7.036;2023-08-07T01:13:49;5.33;;;2.63;;
15425;SDS011;7812;50.072;7.036;2023-08-07T01:16:34;6.73;;;2.70;;
15425;SDS011;7812;50.072;7.036;2023-08-07T01:19:08;5.77;;;2.27;;
15425;SDS011;7812;50.072;7.036;2023-08-07T01:21:46;7.10;;;2.53;;
15425;SDS011;7812;50.072;7.036;2023-08-07T01:24:13;7.03;;;2.60;;
15425;SDS011;7812;50.072;7.036;2023-08-07T01:26:39;5.40;;;2.80;;
15425;SDS011;7812;50.072;7.036;2023-08-07T01:32:08;4.00;;;2.33;;
15425;SDS011;7812;50.072;7.036;2023-08-07T01:34:37;5.83;;;2.67;;
15425;SDS011;7812;50.072;7.036;2023-08-07T01:37:06;5.33;;;2.60;;
15425;SDS011;7812;50.072;7.036;2023-08-07T01:39:34;4.03;;;2.17;;
15425;SDS011;7812;50.072;7.036;2023-08-07T01:42:01;5.10;;;2.27;;
15425;SDS011;7812;50.072;7.036;2023-08-07T01:44:29;4.40;;;2.10;;
15425;SDS011;7812;50.072;7.036;2023-08-07T01:46:55;10.53;;;2.60;;
15425;SDS011;7812;50.072;7.036;2023-08-07T01:49:21;3.50;;;2.10;;
15425;SDS011;7812;50.072;7.036;2023-08-07T01:51:47;3.83;;;2.00;;
15425;SDS011;7812;50.072;7.036;2023-08-07T01:54:12;5.57;;;2.30;;
15425;SDS011;7812;50.072;7.036;2023-08-07T01:56:38;4.17;;;2.00;;
15425;SDS011;7812;50.072;7.036;2023-08-07T01:59:04;2.63;;;1.93;;
15425;SDS011;7812;50.072;7.036;2023-08-07T02:01:29;7.40;;;2.67;;
15425;SDS011;7812;50.072;7.036;2023-08-07T02:07:03;7.17;;;2.13;;
15425;SDS011;7812;50.072;7.036;2023-08-07T02:09:29;3.63;;;1.80;;
15425;SDS011;7812;50.072;7.036;2023-08-07T02:11:55;6.00;;;2.37;;
15425;SDS011;7812;50.072;7.036;2023-08-07T02:14:20;4.33;;;2.20;;
15425;SDS011;7812;50.072;7.036;2023-08-07T02:16:46;3.77;;;2.20;;
15425;SDS011;7812;50.072;7.036;2023-08-07T02:19:12;2.97;;;1.70;;
15425;SDS011;7812;50.072;7.036;2023-08-07T02:21:37;6.17;;;2.50;;
15425;SDS011;7812;50.072;7.036;2023-08-07T02:24:03;2.73;;;2.10;;
15425;SDS011;7812;50.072;7.036;2023-08-07T02:26:29;4.07;;;2.03;;
15425;SDS011;7812;50.072;7.036;2023-08-07T02:28:54;6.80;;;2.60;;
15425;SDS011;7812;50.072;7.036;2023-08-07T02:31:20;4.83;;;2.00;;
15425;SDS011;7812;50.072;7.036;2023-08-07T02:33:45;4.07;;;2.10;;
15425;SDS011;7812;50.072;7.036;2023-08-07T02:36:11;5.80;;;2.40;;
15425;SDS011;7812;50.072;7.036;2023-08-07T02:38:37;3.70;;;2.20;;
15425;SDS011;7812;50.072;7.036;2023-08-07T02:41:03;6.20;;;2.87;;
15425;SDS011;7812;50.072;7.036;2023-08-07T02:43:28;5.13;;;2.27;;
15425;SDS011;7812;50.072;7.036;2023-08-07T02:45:54;7.13;;;2.37;;
15425;SDS011;7812;50.072;7.036;2023-08-07T02:48:20;6.33;;;2.90;;
15425;SDS011;7812;50.072;7.036;2023-08-07T02:50:46;3.53;;;2.13;;
15425;SDS011;7812;50.072;7.036;2023-08-07T02:53:11;6.40;;;2.13;;
15425;SDS011;7812;50.072;7.036;2023-08-07T02:55:37;6.53;;;2.50;;
15425;SDS011;7812;50.072;7.036;2023-08-07T02:58:03;3.33;;;2.00;;
15425;SDS011;7812;50.072;7.036;2023-08-07T03:00:28;4.40;;;2.40;;
15425;SDS011;7812;50.072;7.036;2023-08-07T03:02:54;6.33;;;2.40;;
15425;SDS011;7812;50.072;7.036;2023-08-07T03:05:19;6.50;;;2.20;;
15425;SDS011;7812;50.072;7.036;2023-08-07T03:07:45;3.87;;;1.90;;
15425;SDS011;7812;50.072;7.036;2023-08-07T03:10:11;4.43;;;2.07;;
15425;SDS011;7812;50.072;7.036;2023-08-07T03:12:36;4.47;;;2.20;;
15425;SDS011;7812;50.072;7.036;2023-08-07T03:15:03;5.97;;;2.77;;
15425;SDS011;7812;50.072;7.036;2023-08-07T03:17:30;4.03;;;2.10;;
15425;SDS011;7812;50.072;7.036;2023-08-07T03:19:55;5.17;;;2.43;;
15425;SDS011;7812;50.072;7.036;2023-08-07T03:22:21;5.73;;;2.87;;
15425;SDS011;7812;50.072;7.036;2023-08-07T03:24:47;4.60;;;2.20;;
15425;SDS011;7812;50.072;7.036;2023-08-07T03:27:14;6.80;;;2.40;;
15425;SDS011;7812;50.072;7.036;2023-08-07T03:29:40;3.27;;;2.23;;
15425;SDS011;7812;50.072;7.036;2023-08-07T03:32:06;5.23;;;2.10;;
15425;SDS011;7812;50.072;7.036;2023-08-07T03:34:33;4.33;;;2.23;;
15425;SDS011;7812;50.072;7.036;2023-08-07T03:36:59;2.87;;;2.23;;
15425;SDS011;7812;50.072;7.036;2023-08-07T03:39:25;4.07;;;2.07;;
15425;SDS011;7812;50.072;7.036;2023-08-07T03:41:51;7.10;;;2.70;;
15425;SDS011;7812;50.072;7.036;2023-08-07T03:44:16;4.47;;;2.60;;
15425;SDS011;7812;50.072;7.036;2023-08-07T03:46:42;4.90;;;2.13;;
15425;SDS011;7812;50.072;7.036;2023-08-07T03:49:09;3.63;;;2.23;;
15425;SDS011;7812;50.072;7.036;2023-08-07T03:51:35;6.27;;;2.40;;
15425;SDS011;7812;50.072;7.036;2023-08-07T03:54:00;6.40;;;2.57;;
15425;SDS011;7812;50.072;7.036;2023-08-07T03:56:26;4.47;;;2.07;;
15425;SDS011;7812;50.072;7.036;2023-08-07T03:58:52;4.80;;;2.73;;
15425;SDS011;7812;50.072;7.036;2023-08-07T04:01:18;5.70;;;2.97;;
15425;SDS011;7812;50.072;7.036;2023-08-07T04:03:44;4.87;;;2.20;;
15425;SDS011;7812;50.072;7.036;2023-08-07T04:06:12;4.23;;;2.00;;
15425;SDS011;7812;50.072;7.036;2023-08-07T04:08:42;3.37;;;2.30;;
15425;SDS011;7812;50.072;7.036;2023-08-07T04:11:10;3.33;;;2.27;;
15425;SDS011;7812;50.072;7.036;2023-08-07T04:13:35;7.93;;;2.80;;
15425;SDS011;7812;50.072;7.036;2023-08-07T04:16:01;3.87;;;2.27;;
15425;SDS011;7812;50.072;7.036;2023-08-07T04:18:29;6.20;;;2.67;;
15425;SDS011;7812;50.072;7.036;2023-08-07T04:20:55;4.50;;;2.53;;
15425;SDS011;7812;50.072;7.036;2023-08-07T04:23:22;3.07;;;2.00;;
15425;SDS011;7812;50.072;7.036;2023-08-07T04:25:48;5.20;;;2.20;;
15425;SDS011;7812;50.072;7.036;2023-08-07T04:28:15;4.83;;;2.10;;
15425;SDS011;7812;50.072;7.036;2023-08-07T04:30:42;5.17;;;2.20;;
15425;SDS011;7812;50.072;7.036;2023-08-07T04:33:09;4.37;;;2.00;;
15425;SDS011;7812;50.072;7.036;2023-08-07T04:35:35;7.17;;;2.20;;
15425;SDS011;7812;50.072;7.036;2023-08-07T04:38:01;3.80;;;1.93;;
15425;SDS011;7812;50.072;7.036;2023-08-07T04:40:27;6.27;;;2.37;;
15425;SDS011;7812;50.072;7.036;2023-08-07T04:42:53;3.33;;;2.03;;
15425;SDS011;7812;50.072;7.036;2023-08-07T04:45:19;6.47;;;2.53;;
15425;SDS011;7812;50.072;7.036;2023-08-07T04:47:45;5.33;;;2.47;;
15425;SDS011;7812;50.072;7.036;2023-08-07T04:50:11;2.83;;;1.80;;
15425;SDS011;7812;50.072;7.036;2023-08-07T04:52:38;4.07;;;1.83;;
15425;SDS011;7812;50.072;7.036;2023-08-07T04:55:04;3.27;;;2.60;;
15425;SDS011;7812;50.072;7.036;2023-08-07T04:57:30;3.80;;;1.97;;
15425;SDS011;7812;50.072;7.036;2023-08-07T04:59:55;3.00;;;2.00;;
15425;SDS011;7812;50.072;7.036;2023-08-07T05:02:21;3.60;;;2.20;;
15425;SDS011;7812;50.072;7.036;2023-08-07T05:04:47;4.57;;;2.00;;
15425;SDS011;7812;50.072;7.036;2023-08-07T05:07:13;4.67;;;2.23;;
15425;SDS011;7812;50.072;7.036;2023-08-07T05:09:38;4.67;;;1.97;;
15425;SDS011;7812;50.072;7.036;2023-08-07T05:12:04;3.87;;;2.30;;
15425;SDS011;7812;50.072;7.036;2023-08-07T05:14:32;3.83;;;2.30;;
15425;SDS011;7812;50.072;7.036;2023-08-07T05:16:57;3.40;;;1.63;;
15425;SDS011;7812;50.072;7.036;2023-08-07T05:19:24;4.23;;;2.13;;
15425;SDS011;7812;50.072;7.036;2023-08-07T05:21:50;7.70;;;2.33;;
15425;SDS011;7812;50.072;7.036;2023-08-07T05:24:16;3.20;;;1.93;;
15425;SDS011;7812;50.072;7.036;2023-08-07T05:26:42;3.90;;;2.13;;
15425;SDS011;7812;50.072;7.036;2023-08-07T05:29:08;5.83;;;2.17;;
15425;SDS011;7812;50.072;7.036;2023-08-07T05:31:34;5.90;;;2.10;;
15425;SDS011;7812;50.072;7.036;2023-08-07T05:33:59;4.73;;;2.07;;
15425;SDS011;7812;50.072;7.036;2023-08-07T05:36:25;3.93;;;2.00;;
15425;SDS011;7812;50.072;7.036;2023-08-07T05:38:51;3.03;;;1.87;;
15425;SDS011;7812;50.072;7.036;2023-08-07T05:41:17;5.77;;;2.30;;
15425;SDS011;7812;50.072;7.036;2023-08-07T05:43:43;4.50;;;2.20;;
15425;SDS011;7812;50.072;7.036;2023-08-07T05:46:08;3.43;;;2.07;;
15425;SDS011;7812;50.072;7.036;2023-08-07T05:48:34;4.80;;;2.07;;
15425;SDS011;7812;50.072;7.036;2023-08-07T05:51:00;4.00;;;2.40;;
15425;SDS011;7812;50.072;7.036;2023-08-07T05:53:26;4.50;;;2.23;;
15425;SDS011;7812;50.072;7.036;2023-08-07T05:55:52;3.57;;;1.87;;
15425;SDS011;7812;50.072;7.036;2023-08-07T05:58:18;5.47;;;2.07;;
15425;SDS011;7812;50.072;7.036;2023-08-07T06:00:44;6.60;;;2.37;;
15425;SDS011;7812;50.072;7.036;2023-08-07T06:03:09;2.20;;;1.83;;
15425;SDS011;7812;50.072;7.036;2023-08-07T06:05:35;4.57;;;1.90;;
15425;SDS011;7812;50.072;7.036;2023-08-07T06:08:01;3.70;;;2.07;;
15425;SDS011;7812;50.072;7.036;2023-08-07T06:10:26;3.53;;;1.90;;
15425;SDS011;7812;50.072;7.036;2023-08-07T06:12:52;2.67;;;1.90;;
15425;SDS011;7812;50.072;7.036;2023-08-07T06:15:18;2.80;;;1.70;;
15425;SDS011;7812;50.072;7.036;2023-08-07T06:17:44;6.80;;;1.80;;
15425;SDS011;7812;50.072;7.036;2023-08-07T06:20:10;3.93;;;2.00;;
15425;SDS011;7812;50.072;7.036;2023-08-07T06:22:37;3.67;;;1.77;;
15425;SDS011;7812;50.072;7.036;2023-08-07T06:25:03;5.27;;;2.37;;
15425;SDS011;7812;50.072;7.036;2023-08-07T06:27:30;6.73;;;2.37;;
15425;SDS011;7812;50.072;7.036;2023-08-07T06:29:56;3.83;;;1.90;;
15425;SDS011;7812;50.072;7.036;2023-08-07T06:32:22;3.97;;;1.73;;
15425;SDS011;7812;50.072;7.036;2023-08-07T06:34:48;4.30;;;2.10;;
15425;SDS011;7812;50.072;7.036;2023-08-07T06:37:14;3.60;;;1.97;;
15425;SDS011;7812;50.072;7.036;2023-08-07T06:39:39;3.43;;;2.07;;
15425;SDS011;7812;50.072;7.036;2023-08-07T06:42:05;6.00;;;2.50;;
15425;SDS011;7812;50.072;7.036;2023-08-07T06:44:31;5.95;;;2.25;;
15425;SDS011;7812;50.072;7.036;2023-08-07T06:46:56;2.97;;;1.70;;
15425;SDS011;7812;50.072;7.036;2023-08-07T06:49:22;2.30;;;1.80;;
15425;SDS011;7812;50.072;7.036;2023-08-07T06:51:48;4.43;;;1.87;;
15425;SDS011;7812;50.072;7.036;2023-08-07T06:54:14;2.20;;;1.70;;
15425;SDS011;7812;50.072;7.036;2023-08-07T06:56:40;5.83;;;2.10;;
15425;SDS011;7812;50.072;7.036;2023-08-07T06:59:07;5.87;;;2.23;;
15425;SDS011;7812;50.072;7.036;2023-08-07T07:01:33;6.40;;;1.93;;
15425;SDS011;7812;50.072;7.036;2023-08-07T07:03:58;3.33;;;1.90;;
15425;SDS011;7812;50.072;7.036;2023-08-07T07:06:24;4.50;;;2.00;;
15425;SDS011;7812;50.072;7.036;2023-08-07T07:08:51;4.80;;;2.10;;
15425;SDS011;7812;50.072;7.036;2023-08-07T07:11:20;3.73;;;2.03;;
15425;SDS011;7812;50.072;7.036;2023-08-07T07:13:47;5.60;;;1.90;;
15425;SDS011;7812;50.072;7.036;2023-08-07T07:16:14;4.63;;;1.60;;
15425;SDS011;7812;50.072;7.036;2023-08-07T07:18:40;4.77;;;1.67;;
15425;SDS011;7812;50.072;7.036;2023-08-07T07:21:05;5.87;;;1.83;;
15425;SDS011;7812;50.072;7.036;2023-08-07T07:23:31;3.50;;;2.00;;
15425;SDS011;7812;50.072;7.036;2023-08-07T07:25:57;5.77;;;2.00;;
15425;SDS011;7812;50.072;7.036;2023-08-07T07:28:23;3.50;;;1.80;;
15425;SDS011;7812;50.072;7.036;2023-08-07T07:30:51;4.23;;;2.10;;
15425;SDS011;7812;50.072;7.036;2023-08-07T07:33:17;5.27;;;2.00;;
15425;SDS011;7812;50.072;7.036;2023-08-07T07:35:43;4.70;;;2.10;;
15425;SDS011;7812;50.072;7.036;2023-08-07T07:38:09;3.20;;;1.90;;
15425;SDS011;7812;50.072;7.036;2023-08-07T07:40:35;4.13;;;2.10;;
15425;SDS011;7812;50.072;7.036;2023-08-07T07:43:01;2.27;;;1.50;;
15425;SDS011;7812;50.072;7.036;2023-08-07T07:45:27;4.00;;;1.90;;
15425;SDS011;7812;50.072;7.036;2023-08-07T07:47:53;4.53;;;2.00;;
15425;SDS011;7812;50.072;7.036;2023-08-07T07:50:18;5.33;;;2.10;;
15425;SDS011;7812;50.072;7.036;2023-08-07T07:52:44;2.47;;;1.83;;
15425;SDS011;7812;50.072;7.036;2023-08-07T07:55:10;3.97;;;2.00;;
15425;SDS011;7812;50.072;7.036;2023-08-07T07:57:37;4.10;;;2.20;;
15425;SDS011;7812;50.072;7.036;2023-08-07T08:00:02;3.90;;;1.90;;
15425;SDS011;7812;50.072;7.036;2023-08-07T08:02:32;3.67;;;1.90;;
15425;SDS011;7812;50.072;7.036;2023-08-07T08:04:58;3.50;;;1.80;;
15425;SDS011;7812;50.072;7.036;2023-08-07T08:07:24;4.07;;;1.87;;
15425;SDS011;7812;50.072;7.036;2023-08-07T08:09:50;4.07;;;2.00;;
15425;SDS011;7812;50.072;7.036;2023-08-07T08:12:15;4.60;;;2.03;;
15425;SDS011;7812;50.072;7.036;2023-08-07T08:14:41;3.37;;;1.93;;
15425;SDS011;7812;50.072;7.036;2023-08-07T08:17:07;5.50;;;2.33;;
15425;SDS011;7812;50.072;7.036;2023-08-07T08:19:33;4.87;;;1.80;;
15425;SDS011;7812;50.072;7.036;2023-08-07T08:21:58;3.10;;;2.07;;
15425;SDS011;7812;50.072;7.036;2023-08-07T08:24:24;3.37;;;1.63;;
15425;SDS011;7812;50.072;7.036;2023-08-07T08:26:50;4.00;;;2.00;;
15425;SDS011;7812;50.072;7.036;2023-08-07T08:29:15;3.00;;;1.50;;
15425;SDS011;7812;50.072;7.036;2023-08-07T08:31:41;3.80;;;1.47;;
15425;SDS011;7812;50.072;7.036;2023-08-07T08:34:07;2.90;;;1.70;;
15425;SDS011;7812;50.072;7.036;2023-08-07T08:36:32;2.70;;;1.60;;
15425;SDS011;7812;50.072;7.036;2023-08-07T08:38:58;2.40;;;1.63;;
15425;SDS011;7812;50.072;7.036;2023-08-07T08:41:23;2.93;;;1.50;;
15425;SDS011;7812;50.072;7.036;2023-08-07T08:43:51;2.17;;;1.23;;
15425;SDS011;7812;50.072;7.036;2023-08-07T08:46:19;2.73;;;1.60;;
15425;SDS011;7812;50.072;7.036;2023-08-07T08:48:49;3.27;;;1.63;;
15425;SDS011;7812;50.072;7.036;2023-08-07T08:51:16;2.83;;;1.43;;
15425;SDS011;7812;50.072;7.036;2023-08-07T08:53:44;4.27;;;1.67;;
15425;SDS011;7812;50.072;7.036;2023-08-07T08:56:11;3.50;;;1.50;;
15425;SDS011;7812;50.072;7.036;2023-08-07T08:58:37;2.63;;;1.50;;
15425;SDS011;7812;50.072;7.036;2023-08-07T09:01:03;2.00;;;1.47;;
15425;SDS011;7812;50.072;7.036;2023-08-07T09:03:31;2.33;;;1.53;;
15425;SDS011;7812;50.072;7.036;2023-08-07T09:05:58;2.33;;;1.63;;
15425;SDS011;7812;50.072;7.036;2023-08-07T09:08:27;3.13;;;1.70;;
15425;SDS011;7812;50.072;7.036;2023-08-07T09:10:55;2.07;;;1.50;;
15425;SDS011;7812;50.072;7.036;2023-08-07T09:13:22;4.33;;;2.20;;
15425;SDS011;7812;50.072;7.036;2023-08-07T09:15:50;2.80;;;1.33;;
15425;SDS011;7812;50.072;7.036;2023-08-07T09:18:16;4.60;;;2.10;;
15425;SDS011;7812;50.072;7.036;2023-08-07T09:20:43;3.93;;;1.73;;
15425;SDS011;7812;50.072;7.036;2023-08-07T09:23:08;2.60;;;1.40;;
15425;SDS011;7812;50.072;7.036;2023-08-07T09:25:34;2.07;;;1.60;;
15425;SDS011;7812;50.072;7.036;2023-08-07T09:28:01;3.63;;;1.80;;
15425;SDS011;7812;50.072;7.036;2023-08-07T09:30:30;3.07;;;1.10;;
15425;SDS011;7812;50.072;7.036;2023-08-07T09:32:57;2.30;;;1.60;;
15425;SDS011;7812;50.072;7.036;2023-08-07T09:35:24;2.13;;;1.80;;
15425;SDS011;7812;50.072;7.036;2023-08-07T09:37:50;3.67;;;1.50;;
15425;SDS011;7812;50.072;7.036;2023-08-07T09:40:16;4.43;;;2.10;;
15425;SDS011;7812;50.072;7.036;2023-08-07T09:42:42;3.60;;;1.53;;
15425;SDS011;7812;50.072;7.036;2023-08-07T09:45:26;2.17;;;1.17;;
15425;SDS011;7812;50.072;7.036;2023-08-07T09:50:25;2.20;;;1.37;;
15425;SDS011;7812;50.072;7.036;2023-08-07T09:52:52;2.90;;;1.53;;
15425;SDS011;7812;50.072;7.036;2023-08-07T09:55:18;1.70;;;1.17;;
15425;SDS011;7812;50.072;7.036;2023-08-07T09:57:44;1.87;;;1.23;;
15425;SDS011;7812;50.072;7.036;2023-08-07T10:00:10;3.30;;;1.60;;
15425;SDS011;7812;50.072;7.036;2023-08-07T10:02:39;2.20;;;1.67;;
15425;SDS011;7812;50.072;7.036;2023-08-07T10:05:05;3.47;;;1.47;;
15425;SDS011;7812;50.072;7.036;2023-08-07T10:07:33;3.40;;;1.43;;
15425;SDS011;7812;50.072;7.036;2023-08-07T10:09:59;2.43;;;1.40;;
15425;SDS011;7812;50.072;7.036;2023-08-07T10:12:27;3.00;;;1.27;;
15425;SDS011;7812;50.072;7.036;2023-08-07T10:14:53;3.67;;;1.20;;
15425;SDS011;7812;50.072;7.036;2023-08-07T10:17:20;3.27;;;1.87;;
15425;SDS011;7812;50.072;7.036;2023-08-07T10:19:47;2.03;;;1.47;;
15425;SDS011;7812;50.072;7.036;2023-08-07T10:22:14;1.90;;;1.40;;
15425;SDS011;7812;50.072;7.036;2023-08-07T10:24:42;3.50;;;1.40;;
15425;SDS011;7812;50.072;7.036;2023-08-07T10:27:09;2.40;;;1.10;;
15425;SDS011;7812;50.072;7.036;2023-08-07T10:29:37;3.00;;;1.93;;
15425;SDS011;7812;50.072;7.036;2023-08-07T10:32:05;1.83;;;1.57;;
15425;SDS011;7812;50.072;7.036;2023-08-07T10:34:33;1.87;;;1.40;;
15425;SDS011;7812;50.072;7.036;2023-08-07T10:36:59;1.90;;;1.30;;
15425;SDS011;7812;50.072;7.036;2023-08-07T10:39:24;2.43;;;1.60;;
15425;SDS011;7812;50.072;7.036;2023-08-07T10:41:54;2.83;;;1.57;;
15425;SDS011;7812;50.072;7.036;2023-08-07T10:44:21;3.63;;;1.50;;
15425;SDS011;7812;50.072;7.036;2023-08-07T10:52:09;2.90;;;1.70;;
15425;SDS011;7812;50.072;7.036;2023-08-07T10:54:39;2.33;;;1.40;;
15425;SDS011;7812;50.072;7.036;2023-08-07T10:57:13;2.37;;;1.27;;
15425;SDS011;7812;50.072;7.036;2023-08-07T11:02:24;1.80;;;1.30;;
15425;SDS011;7812;50.072;7.036;2023-08-07T11:04:51;3.37;;;1.40;;
15425;SDS011;7812;50.072;7.036;2023-08-07T11:07:27;1.63;;;1.10;;
15425;SDS011;7812;50.072;7.036;2023-08-07T11:09:55;2.63;;;1.67;;
15425;SDS011;7812;50.072;7.036;2023-08-07T11:12:25;2.07;;;1.27;;
15425;SDS011;7812;50.072;7.036;2023-08-07T11:14:52;2.87;;;1.40;;
15425;SDS011;7812;50.072;7.036;2023-08-07T11:17:18;2.27;;;1.30;;
15425;SDS011;7812;50.072;7.036;2023-08-07T11:19:46;2.97;;;1.40;;
15425;SDS011;7812;50.072;7.036;2023-08-07T11:22:14;2.57;;;1.40;;
15425;SDS011;7812;50.072;7.036;2023-08-07T11:24:41;3.40;;;1.60;;
15425;SDS011;7812;50.072;7.036;2023-08-07T11:27:07;1.70;;;1.27;;
15425;SDS011;7812;50.072;7.036;2023-08-07T11:29:33;2.63;;;1.50;;
15425;SDS011;7812;50.072;7.036;2023-08-07T11:31:59;3.60;;;1.60;;
15425;SDS011;7812;50.072;7.036;2023-08-07T11:34:25;2.13;;;1.30;;
15425;SDS011;7812;50.072;7.036;2023-08-07T11:36:51;2.00;;;1.40;;
15425;SDS011;7812;50.072;7.036;2023-08-07T11:39:16;2.20;;;1.60;;
15425;SDS011;7812;50.072;7.036;2023-08-07T11:41:44;2.93;;;1.40;;
15425;SDS011;7812;50.072;7.036;2023-08-07T11:44:10;6.90;;;1.90;;
15425;SDS011;7812;50.072;7.036;2023-08-07T11:46:36;1.33;;;1.20;;
15425;SDS011;7812;50.072;7.036;2023-08-07T11:49:02;1.50;;;1.20;;
15425;SDS011;7812;50.072;7.036;2023-08-07T11:51:29;3.07;;;1.60;;
15425;SDS011;7812;50.072;7.036;2023-08-07T11:53:55;3.90;;;1.50;;
15425;SDS011;7812;50.072;7.036;2023-08-07T11:56:23;3.57;;;1.43;;
15425;SDS011;7812;50.072;7.036;2023-08-07T11:58:50;2.00;;;1.57;;
15425;SDS011;7812;50.072;7.036;2023-08-07T12:01:19;2.23;;;1.17;;
15425;SDS011;7812;50.072;7.036;2023-08-07T12:03:56;3.93;;;1.63;;
15425;SDS011;7812;50.072;7.036;2023-08-07T12:06:33;1.83;;;1.37;;
15425;SDS011;7812;50.072;7.036;2023-08-07T12:09:00;3.70;;;1.60;;
15425;SDS011;7812;50.072;7.036;2023-08-07T12:11:28;2.10;;;1.60;;
15425;SDS011;7812;50.072;7.036;2023-08-07T12:13:54;1.53;;;1.30;;
15425;SDS011;7812;50.072;7.036;2023-08-07T12:16:20;6.77;;;1.93;;
15425;SDS011;7812;50.072;7.036;2023-08-07T12:18:47;3.13;;;1.40;;
15425;SDS011;7812;50.072;7.036;2023-08-07T12:21:15;2.63;;;1.50;;
15425;SDS011;7812;50.072;7.036;2023-08-07T12:23:44;1.90;;;1.30;;
15425;SDS011;7812;50.072;7.036;2023-08-07T12:26:13;2.00;;;1.27;;
15425;SDS011;7812;50.072;7.036;2023-08-07T12:28:39;2.50;;;1.30;;
15425;SDS011;7812;50.072;7.036;2023-08-07T12:31:04;2.30;;;1.63;;
15425;SDS011;7812;50.072;7.036;2023-08-07T12:33:31;4.40;;;1.53;;
15425;SDS011;7812;50.072;7.036;2023-08-07T12:35:58;2.43;;;1.40;;
15425;SDS011;7812;50.072;7.036;2023-08-07T12:38:24;3.43;;;1.50;;
15425;SDS011;7812;50.072;7.036;2023-08-07T12:40:50;3.70;;;1.70;;
15425;SDS011;7812;50.072;7.036;2023-08-07T12:43:16;2.27;;;1.50;;
15425;SDS011;7812;50.072;7.036;2023-08-07T12:45:41;2.87;;;1.70;;
15425;SDS011;7812;50.072;7.036;2023-08-07T12:48:07;1.83;;;1.40;;
15425;SDS011;7812;50.072;7.036;2023-08-07T12:50:33;2.53;;;1.60;;
15425;SDS011;7812;50.072;7.036;2023-08-07T12:52:59;3.47;;;1.67;;
15425;SDS011;7812;50.072;7.036;2023-08-07T12:55:25;1.73;;;1.47;;
15425;SDS011;7812;50.072;7.036;2023-08-07T12:57:53;3.53;;;1.47;;
15425;SDS011;7812;50.072;7.036;2023-08-07T13:00:19;2.40;;;1.77;;
15425;SDS011;7812;50.072;7.036;2023-08-07T13:02:46;3.80;;;1.47;;
15425;SDS011;7812;50.072;7.036;2023-08-07T13:05:14;1.87;;;1.20;;
15425;SDS011;7812;50.072;7.036;2023-08-07T13:07:41;2.77;;;1.63;;
15425;SDS011;7812;50.072;7.036;2023-08-07T13:10:09;2.70;;;1.77;;
15425;SDS011;7812;50.072;7.036;2023-08-07T13:12:36;1.73;;;1.47;;
15425;SDS011;7812;50.072;7.036;2023-08-07T13:15:03;2.67;;;1.73;;
15425;SDS011;7812;50.072;7.036;2023-08-07T13:17:30;3.83;;;1.90;;
15425;SDS011;7812;50.072;7.036;2023-08-07T13:19:57;2.83;;;1.80;;
15425;SDS011;7812;50.072;7.036;2023-08-07T13:22:23;3.30;;;1.80;;
15425;SDS011;7812;50.072;7.036;2023-08-07T13:24:49;1.50;;;1.20;;
15425;SDS011;7812;50.072;7.036;2023-08-07T13:27:14;1.57;;;1.40;;
15425;SDS011;7812;50.072;7.036;2023-08-07T13:29:40;4.13;;;1.60;;
15425;SDS011;7812;50.072;7.036;2023-08-07T13:32:06;1.90;;;1.23;;
15425;SDS011;7812;50.072;7.036;2023-08-07T13:34:37;1.83;;;1.40;;
15425;SDS011;7812;50.072;7.036;2023-08-07T13:37:04;3.20;;;1.13;;
15425;SDS011;7812;50.072;7.036;2023-08-07T13:39:30;2.90;;;1.80;;
15425;SDS011;7812;50.072;7.036;2023-08-07T13:41:56;2.70;;;1.37;;
15425;SDS011;7812;50.072;7.036;2023-08-07T13:44:22;2.33;;;1.57;;
15425;SDS011;7812;50.072;7.036;2023-08-07T13:46:48;1.80;;;1.50;;
15425;SDS011;7812;50.072;7.036;2023-08-07T13:49:14;3.60;;;1.47;;
15425;SDS011;7812;50.072;7.036;2023-08-07T13:51:43;2.30;;;1.07;;
15425;SDS011;7812;50.072;7.036;2023-08-07T13:54:08;1.70;;;1.40;;
15425;SDS011;7812;50.072;7.036;2023-08-07T13:56:34;1.40;;;1.20;;
15425;SDS011;7812;50.072;7.036;2023-08-07T13:59:00;2.27;;;1.27;;
15425;SDS011;7812;50.072;7.036;2023-08-07T14:01:26;1.87;;;1.33;;
15425;SDS011;7812;50.072;7.036;2023-08-07T14:03:53;1.60;;;1.40;;
15425;SDS011;7812;50.072;7.036;2023-08-07T14:06:19;3.53;;;1.70;;
15425;SDS011;7812;50.072;7.036;2023-08-07T14:08:45;1.83;;;1.30;;
15425;SDS011;7812;50.072;7.036;2023-08-07T14:11:11;1.67;;;1.17;;
15425;SDS011;7812;50.072;7.036;2023-08-07T14:13:39;2.17;;;1.50;;
15425;SDS011;7812;50.072;7.036;2023-08-07T14:16:05;2.00;;;1.20;;
15425;SDS011;7812;50.072;7.036;2023-08-07T14:18:31;1.77;;;1.20;;
15425;SDS011;7812;50.072;7.036;2023-08-07T14:20:57;1.67;;;1.00;;
15425;SDS011;7812;50.072;7.036;2023-08-07T14:23:22;1.37;;;1.00;;
15425;SDS011;7812;50.072;7.036;2023-08-07T14:25:48;1.53;;;1.20;;
15425;SDS011;7812;50.072;7.036;2023-08-07T14:28:16;2.73;;;1.00;;
15425;SDS011;7812;50.072;7.036;2023-08-07T14:30:42;1.73;;;1.27;;
15425;SDS011;7812;50.072;7.036;2023-08-07T14:33:07;3.60;;;1.20;;
15425;SDS011;7812;50.072;7.036;2023-08-07T14:35:33;2.37;;;1.20;;
15425;SDS011;7812;50.072;7.036;2023-08-07T14:37:59;3.17;;;1.47;;
15425;SDS011;7812;50.072;7.036;2023-08-07T14:40:25;5.80;;;1.67;;
15425;SDS011;7812;50.072;7.036;2023-08-07T14:42:52;2.20;;;1.50;;
15425;SDS011;7812;50.072;7.036;2023-08-07T14:45:19;1.83;;;1.40;;
15425;SDS011;7812;50.072;7.036;2023-08-07T14:47:46;1.40;;;1.30;;
15425;SDS011;7812;50.072;7.036;2023-08-07T14:50:11;1.13;;;0.90;;
15425;SDS011;7812;50.072;7.036;2023-08-07T14:52:37;2.60;;;1.10;;
15425;SDS011;7812;50.072;7.036;2023-08-07T14:55:03;1.73;;;1.27;;
15425;SDS011;7812;50.072;7.036;2023-08-07T14:57:29;1.60;;;0.90;;
15425;SDS011;7812;50.072;7.036;2023-08-07T14:59:54;1.37;;;1.17;;
15425;SDS011;7812;50.072;7.036;2023-08-07T15:02:20;1.40;;;1.17;;
15425;SDS011;7812;50.072;7.036;2023-08-07T15:04:46;1.80;;;1.50;;
15425;SDS011;7812;50.072;7.036;2023-08-07T15:07:12;2.27;;;1.17;;
15425;SDS011;7812;50.072;7.036;2023-08-07T15:09:38;3.07;;;1.20;;
15425;SDS011;7812;50.072;7.036;2023-08-07T15:12:03;1.10;;;1.00;;
15425;SDS011;7812;50.072;7.036;2023-08-07T15:14:31;1.93;;;1.30;;
15425;SDS011;7812;50.072;7.036;2023-08-07T15:16:57;2.43;;;1.10;;
15425;SDS011;7812;50.072;7.036;2023-08-07T15:19:23;1.80;;;1.03;;